createdAt,value
2019-02-06T00:01:14.843Z,42.50
2019-02-06T00:03:41.009Z,42.50
2019-02-06T00:06:07.194Z,42.50
2019-02-06T00:08:33.513Z,42.50
2019-02-06T00:10:59.689Z,42.50
2019-02-06T00:13:27.016Z,42.40
2019-02-06T00:15:53.381Z,42.50
2019-02-06T00:18:19.579Z,42.50
2019-02-06T00:20:45.762Z,42.40
2019-02-06T00:23:11.930Z,42.50
2019-02-06T00:25:38.089Z,42.50
2019-02-06T00:28:04.244Z,42.40
2019-02-06T00:30:30.397Z,42.40
2019-02-06T00:32:57.314Z,42.30
2019-02-06T00:35:25.850Z,42.30
2019-02-06T00:37:49.681Z,42.50
2019-02-06T00:40:15.862Z,42.40
2019-02-06T00:42:42.016Z,42.40
2019-02-06T00:45:08.176Z,42.40
2019-02-06T00:47:35.112Z,42.30
2019-02-06T00:50:01.269Z,42.30
2019-02-06T00:52:27.514Z,42.30
2019-02-06T00:54:53.661Z,42.30
2019-02-06T00:57:19.819Z,42.30
2019-02-06T00:59:46.136Z,42.20
2019-02-06T01:02:12.297Z,42.30
2019-02-06T01:04:38.458Z,42.20
2019-02-06T01:07:04.612Z,42.20
2019-02-06T01:09:30.780Z,42.90
2019-02-06T01:11:56.949Z,42.20
2019-02-06T01:14:23.124Z,42.20
2019-02-06T01:16:49.334Z,42.20
2019-02-06T01:19:15.489Z,42.10
2019-02-06T01:21:41.646Z,42.20
2019-02-06T01:24:07.800Z,42.20
2019-02-06T01:26:33.957Z,42.20
2019-02-06T01:29:00.109Z,42.10
2019-02-06T01:31:26.252Z,42.10
2019-02-06T01:33:52.412Z,42.10
2019-02-06T01:36:18.647Z,42.10
2019-02-06T01:38:45.504Z,42.10
2019-02-06T01:41:11.685Z,42.10
2019-02-06T01:43:37.850Z,42.10
2019-02-06T01:46:04.000Z,42.20
2019-02-06T01:48:30.156Z,42.10
2019-02-06T01:50:56.308Z,42.10
2019-02-06T01:53:22.460Z,42.10
2019-02-06T01:55:48.617Z,42.10
2019-02-06T01:58:14.818Z,42.10
2019-02-06T02:00:41.142Z,42.00
2019-02-06T02:03:07.291Z,42.00
2019-02-06T02:05:33.469Z,42.00
2019-02-06T02:07:59.644Z,42.00
2019-02-06T02:10:25.811Z,42.00
2019-02-06T02:12:51.973Z,42.10
2019-02-06T02:15:18.156Z,42.00
2019-02-06T02:17:44.324Z,42.60
2019-02-06T02:20:10.519Z,42.00
2019-02-06T02:22:36.680Z,41.90
2019-02-06T02:25:02.831Z,42.00
2019-02-06T02:27:28.992Z,41.90
2019-02-06T02:30:00.733Z,42.00
2019-02-06T02:32:26.901Z,41.90
2019-02-06T02:34:53.102Z,41.90
2019-02-06T02:37:19.279Z,41.90
2019-02-06T02:39:45.462Z,41.90
2019-02-06T02:42:12.404Z,41.90
2019-02-06T02:44:38.587Z,41.90
2019-02-06T02:47:04.764Z,42.00
2019-02-06T02:49:30.913Z,41.90
2019-02-06T02:51:57.065Z,41.90
2019-02-06T02:54:23.216Z,41.90
2019-02-06T02:56:49.371Z,41.80
2019-02-06T02:59:15.591Z,41.70
2019-02-06T03:01:41.919Z,41.70
2019-02-06T03:04:08.860Z,42.20
2019-02-06T03:06:35.043Z,41.80
2019-02-06T03:09:01.209Z,41.80
2019-02-06T03:11:27.368Z,41.80
2019-02-06T03:13:53.518Z,41.80
2019-02-06T03:16:19.672Z,41.80
2019-02-06T03:18:45.856Z,41.70
2019-02-06T03:21:12.037Z,41.70
2019-02-06T03:23:38.192Z,41.60
2019-02-06T03:26:04.343Z,41.60
2019-02-06T03:28:30.496Z,41.60
2019-02-06T03:30:56.671Z,41.60
2019-02-06T03:33:22.832Z,41.60
2019-02-06T03:35:49.097Z,41.60
2019-02-06T03:38:15.175Z,41.60
2019-02-06T03:40:41.361Z,41.60
2019-02-06T03:43:07.524Z,41.60
2019-02-06T03:45:33.844Z,41.60
2019-02-06T03:48:00.020Z,41.60
2019-02-06T03:50:26.184Z,41.50
2019-02-06T03:52:52.375Z,41.50
2019-02-06T03:55:18.565Z,41.50
2019-02-06T03:57:45.547Z,41.50
2019-02-06T04:00:11.733Z,41.50
2019-02-06T04:02:37.892Z,41.50
2019-02-06T04:05:04.044Z,41.40
2019-02-06T04:07:30.196Z,41.50
2019-02-06T04:09:56.393Z,41.50
2019-02-06T04:12:22.725Z,41.40
2019-02-06T04:14:48.882Z,41.50
2019-02-06T04:17:15.045Z,41.50
2019-02-06T04:19:41.983Z,41.40
2019-02-06T04:22:08.160Z,42.10
2019-02-06T04:24:34.334Z,41.40
2019-02-06T04:27:00.529Z,41.30
2019-02-06T04:29:26.690Z,41.30
2019-02-06T04:31:53.081Z,41.30
2019-02-06T04:34:19.288Z,41.30
2019-02-06T04:36:45.530Z,41.20
2019-02-06T04:39:11.748Z,41.30
2019-02-06T04:41:37.992Z,41.30
2019-02-06T04:44:04.209Z,41.20
2019-02-06T04:46:30.443Z,41.20
2019-02-06T04:48:56.655Z,41.30
2019-02-06T04:51:22.903Z,41.20
2019-02-06T04:53:49.112Z,41.20
2019-02-06T04:56:15.348Z,41.20
2019-02-06T04:58:41.592Z,41.20
2019-02-06T05:01:07.816Z,41.20
2019-02-06T05:03:34.045Z,41.10
2019-02-06T05:06:01.503Z,41.10
2019-02-06T05:08:27.747Z,41.10
2019-02-06T05:10:53.961Z,41.10
2019-02-06T05:13:20.194Z,41.20
2019-02-06T05:15:46.415Z,41.10
2019-02-06T05:18:13.962Z,41.80
2019-02-06T05:20:40.107Z,41.00
2019-02-06T05:23:06.344Z,41.00
2019-02-06T05:25:32.573Z,41.00
2019-02-06T05:27:58.797Z,41.00
2019-02-06T05:30:25.031Z,41.00
2019-02-06T05:32:52.120Z,41.00
2019-02-06T05:35:18.306Z,41.00
2019-02-06T05:37:45.767Z,41.10
2019-02-06T05:40:12.403Z,40.90
2019-02-06T05:42:38.635Z,41.00
2019-02-06T05:45:04.860Z,41.00
2019-02-06T05:47:31.090Z,40.90
2019-02-06T05:49:57.337Z,40.90
2019-02-06T05:52:23.543Z,40.90
2019-02-06T05:54:49.781Z,40.90
2019-02-06T05:57:16.013Z,40.80
2019-02-06T05:59:42.251Z,40.90
2019-02-06T06:02:08.470Z,41.50
2019-02-06T06:04:35.916Z,40.90
2019-02-06T06:07:02.164Z,40.70
2019-02-06T06:09:28.382Z,40.80
2019-02-06T06:11:54.610Z,40.70
2019-02-06T06:14:20.840Z,40.70
2019-02-06T06:16:47.072Z,40.70
2019-02-06T06:19:13.293Z,40.60
2019-02-06T06:21:39.516Z,40.70
2019-02-06T06:24:08.959Z,40.60
2019-02-06T06:26:31.994Z,40.60
2019-02-06T06:28:58.213Z,40.50
2019-02-06T06:31:24.447Z,40.60
2019-02-06T06:33:50.672Z,40.60
2019-02-06T06:36:16.908Z,40.60
2019-02-06T06:38:43.128Z,40.40
2019-02-06T06:41:09.372Z,40.50
2019-02-06T06:43:36.812Z,40.40
2019-02-06T06:46:02.968Z,40.30
2019-02-06T06:48:29.268Z,40.40
2019-02-06T06:50:55.489Z,40.40
2019-02-06T06:53:21.725Z,40.30
2019-02-06T06:55:47.948Z,40.40
2019-02-06T06:58:14.184Z,40.40
2019-02-06T07:00:40.431Z,40.30
2019-02-06T07:03:06.651Z,40.30
2019-02-06T07:05:32.883Z,40.30
2019-02-06T07:08:09.115Z,40.30
2019-02-06T07:10:25.329Z,40.30
2019-02-06T07:12:51.495Z,40.30
2019-02-06T07:15:17.791Z,40.30
2019-02-06T07:17:44.012Z,40.30
2019-02-06T07:20:10.281Z,40.30
2019-02-06T07:22:36.465Z,40.30
2019-02-06T07:25:02.705Z,40.30
2019-02-06T07:27:28.928Z,40.40
2019-02-06T07:29:55.179Z,40.40
2019-02-06T07:32:21.383Z,40.40
2019-02-06T07:34:47.621Z,40.40
2019-02-06T07:37:13.856Z,40.30
2019-02-06T07:39:40.082Z,40.30
2019-02-06T07:42:06.335Z,40.30
2019-02-06T07:44:32.537Z,40.30
2019-02-06T07:46:58.764Z,40.30
2019-02-06T07:49:24.992Z,40.30
2019-02-06T07:51:51.233Z,40.20
2019-02-06T07:54:17.480Z,40.10
2019-02-06T07:56:43.701Z,40.20
2019-02-06T07:59:09.909Z,40.10
2019-02-06T08:01:36.206Z,40.10
2019-02-06T08:04:02.789Z,40.10
2019-02-06T08:06:29.040Z,40.70
2019-02-06T08:08:55.242Z,40.00
2019-02-06T08:11:21.470Z,40.00
2019-02-06T08:13:47.692Z,40.60
2019-02-06T08:16:13.920Z,40.00
2019-02-06T08:18:40.152Z,40.00
2019-02-06T08:21:06.382Z,40.10
2019-02-06T08:23:32.600Z,40.00
2019-02-06T08:25:58.834Z,40.60
2019-02-06T08:28:25.066Z,40.00
2019-02-06T08:30:51.299Z,39.90
2019-02-06T08:33:17.520Z,39.90
2019-02-06T08:35:43.749Z,39.80
2019-02-06T08:38:09.956Z,39.90
2019-02-06T08:40:36.227Z,39.80
2019-02-06T08:43:02.441Z,39.90
2019-02-06T08:45:28.675Z,39.70
2019-02-06T08:47:54.903Z,39.80
2019-02-06T08:50:21.223Z,39.90
2019-02-06T08:52:47.764Z,39.80
2019-02-06T08:55:14.067Z,39.70
2019-02-06T08:57:40.236Z,39.80
2019-02-06T09:00:06.455Z,39.80
2019-02-06T09:02:32.683Z,39.80
2019-02-06T09:04:58.932Z,39.80
2019-02-06T09:07:25.136Z,39.70
2019-02-06T09:09:51.369Z,39.80
2019-02-06T09:12:17.599Z,39.80
2019-02-06T09:14:43.830Z,39.80
2019-02-06T09:17:10.062Z,39.80
2019-02-06T09:19:36.297Z,39.80
2019-02-06T09:22:02.512Z,39.70
2019-02-06T09:24:28.759Z,39.80
2019-02-06T09:26:54.976Z,39.80
2019-02-06T09:29:21.197Z,39.90
2019-02-06T09:31:47.427Z,39.70
2019-02-06T09:34:13.656Z,39.80
2019-02-06T09:36:39.884Z,39.80
2019-02-06T09:39:11.841Z,39.90
2019-02-06T09:41:32.344Z,39.80
2019-02-06T09:43:58.573Z,39.80
2019-02-06T09:46:24.811Z,39.80
2019-02-06T09:48:51.046Z,39.80
2019-02-06T09:51:19.202Z,39.80
2019-02-06T09:53:43.501Z,39.90
2019-02-06T09:56:09.717Z,39.90
2019-02-06T09:58:35.941Z,39.90
2019-02-06T10:01:02.604Z,39.90
2019-02-06T10:03:28.850Z,39.90
2019-02-06T10:05:55.063Z,39.90
2019-02-06T10:08:21.269Z,39.90
2019-02-06T10:10:47.522Z,39.90
2019-02-06T10:13:16.447Z,40.60
2019-02-06T10:15:39.950Z,39.90
2019-02-06T10:18:06.185Z,39.90
2019-02-06T10:20:32.409Z,39.90
2019-02-06T10:22:58.645Z,39.80
2019-02-06T10:25:24.859Z,39.90
2019-02-06T10:27:51.095Z,39.80
2019-02-06T10:30:17.325Z,39.90
2019-02-06T10:32:43.548Z,39.80
2019-02-06T10:35:09.782Z,39.80
2019-02-06T10:37:35.997Z,39.90
2019-02-06T10:40:02.222Z,39.90
2019-02-06T10:42:28.852Z,39.80
2019-02-06T10:44:55.100Z,39.80
2019-02-06T10:47:21.337Z,39.80
2019-02-06T10:49:47.546Z,39.80
2019-02-06T10:52:13.788Z,39.80
2019-02-06T10:54:39.996Z,39.80
2019-02-06T10:57:06.236Z,39.80
2019-02-06T10:59:32.454Z,39.90
2019-02-06T11:01:58.605Z,39.80
2019-02-06T11:04:24.908Z,39.70
2019-02-06T11:06:51.143Z,39.80
2019-02-06T11:09:17.395Z,39.70
2019-02-06T11:11:43.593Z,39.80
2019-02-06T11:14:09.817Z,39.80
2019-02-06T11:16:36.048Z,39.70
2019-02-06T11:19:02.269Z,39.80
2019-02-06T11:21:28.530Z,39.90
2019-02-06T11:23:54.728Z,39.80
2019-02-06T11:26:21.009Z,39.80
2019-02-06T11:28:47.184Z,39.80
2019-02-06T11:31:13.417Z,39.80
2019-02-06T11:33:40.065Z,39.80
2019-02-06T11:36:06.296Z,39.80
2019-02-06T11:38:32.504Z,39.70
2019-02-06T11:40:58.733Z,39.80
2019-02-06T11:43:24.967Z,39.80
2019-02-06T11:45:51.205Z,39.70
2019-02-06T11:48:17.417Z,39.70
2019-02-06T11:50:43.645Z,39.80
2019-02-06T11:53:09.871Z,39.90
2019-02-06T11:55:36.096Z,39.90
2019-02-06T11:58:02.331Z,39.90
2019-02-06T12:00:28.789Z,39.90
2019-02-06T12:02:55.185Z,39.90
2019-02-06T12:05:21.836Z,39.80
2019-02-06T12:07:48.922Z,39.90
2019-02-06T12:10:15.108Z,39.90
2019-02-06T12:12:41.345Z,40.00
2019-02-06T12:15:07.556Z,40.00
2019-02-06T12:17:33.801Z,39.90
2019-02-06T12:20:00.019Z,39.90
2019-02-06T12:22:26.250Z,39.80
2019-02-06T12:24:52.481Z,40.00
2019-02-06T12:27:18.712Z,40.00
2019-02-06T12:29:44.937Z,40.00
2019-02-06T12:34:43.124Z,40.00
2019-02-06T12:37:09.362Z,40.00
2019-02-06T12:39:35.602Z,40.00
2019-02-06T12:42:01.828Z,40.00
2019-02-06T12:44:28.038Z,40.10
2019-02-06T12:46:54.269Z,40.10
2019-02-06T12:49:20.491Z,40.00
2019-02-06T12:51:46.712Z,40.00
2019-02-06T12:54:12.949Z,40.10
2019-02-06T12:56:39.176Z,40.10
2019-02-06T12:59:05.405Z,40.10
2019-02-06T13:01:31.628Z,40.10
2019-02-06T13:03:57.860Z,40.00
2019-02-06T13:06:24.083Z,40.00
2019-02-06T13:08:50.312Z,40.10
2019-02-06T13:11:16.547Z,40.00
2019-02-06T13:13:45.148Z,40.10
2019-02-06T13:16:09.002Z,40.20
2019-02-06T13:18:35.224Z,40.10
2019-02-06T13:21:01.457Z,40.20
2019-02-06T13:23:27.690Z,40.20
2019-02-06T13:25:53.914Z,40.90
2019-02-06T13:28:20.132Z,40.20
2019-02-06T13:30:46.374Z,40.20
2019-02-06T13:33:12.593Z,40.20
2019-02-06T13:35:38.853Z,40.10
2019-02-06T13:38:05.166Z,40.20
2019-02-06T13:40:31.275Z,40.20
2019-02-06T13:42:57.506Z,40.20
2019-02-06T13:45:23.735Z,40.20
2019-02-06T13:47:49.912Z,40.20
2019-02-06T13:50:22.211Z,40.30
2019-02-06T13:52:42.886Z,40.30
2019-02-06T13:55:09.053Z,40.90
2019-02-06T13:57:35.280Z,40.20
2019-02-06T14:00:01.553Z,40.20
2019-02-06T14:02:27.744Z,40.30
2019-02-06T14:04:53.961Z,40.30
2019-02-06T14:07:20.188Z,40.30
2019-02-06T14:09:46.416Z,40.40
2019-02-06T14:12:13.567Z,40.40
2019-02-06T14:14:38.871Z,40.40
2019-02-06T14:17:05.109Z,40.30
2019-02-06T14:19:31.330Z,40.40
2019-02-06T14:21:57.552Z,40.40
2019-02-06T14:24:23.795Z,40.40
2019-02-06T14:26:50.012Z,40.40
2019-02-06T14:29:16.240Z,40.50
2019-02-06T14:31:42.468Z,40.50
2019-02-06T14:34:08.693Z,40.50
2019-02-06T14:36:34.923Z,40.50
2019-02-06T14:39:01.151Z,40.40
2019-02-06T14:41:27.373Z,40.40
2019-02-06T14:43:53.573Z,40.40
2019-02-06T14:46:19.828Z,40.50
2019-02-06T14:48:46.060Z,40.50
2019-02-06T14:51:12.290Z,40.50
2019-02-06T14:53:38.547Z,40.50
2019-02-06T14:56:04.740Z,40.50
2019-02-06T14:58:30.967Z,40.40
2019-02-06T15:01:00.074Z,40.40
2019-02-06T15:03:24.649Z,40.50
2019-02-06T15:05:50.890Z,40.50
2019-02-06T15:08:17.124Z,40.50
2019-02-06T15:10:43.335Z,40.60
2019-02-06T15:13:12.261Z,40.50
2019-02-06T15:15:35.802Z,40.60
2019-02-06T15:18:02.130Z,40.60
2019-02-06T15:20:28.683Z,40.60
2019-02-06T15:22:54.888Z,40.60
2019-02-06T15:25:21.121Z,40.60
2019-02-06T15:27:47.342Z,40.60
2019-02-06T15:30:13.569Z,40.60
2019-02-06T15:32:39.814Z,40.60
2019-02-06T15:35:06.020Z,40.60
2019-02-06T15:37:32.251Z,40.60
2019-02-06T15:39:58.492Z,40.60
2019-02-06T15:42:24.737Z,40.60
2019-02-06T15:44:50.936Z,40.60
2019-02-06T15:47:17.156Z,40.60
2019-02-06T15:49:43.383Z,40.60
2019-02-06T15:52:09.618Z,40.60
2019-02-06T15:54:38.802Z,40.60
2019-02-06T15:57:03.409Z,40.50
2019-02-06T15:59:29.554Z,40.60
2019-02-06T16:01:55.752Z,40.60
2019-02-06T16:04:21.976Z,40.60
2019-02-06T16:06:48.204Z,40.60
2019-02-06T16:09:14.461Z,40.70
2019-02-06T16:11:42.282Z,40.70
2019-02-06T16:14:06.894Z,40.60
2019-02-06T16:16:33.126Z,40.60
2019-02-06T16:18:59.346Z,40.60
2019-02-06T16:21:25.594Z,40.70
2019-02-06T16:23:51.797Z,40.60
2019-02-06T16:26:18.027Z,40.60
2019-02-06T16:28:44.252Z,40.60
2019-02-06T16:31:10.508Z,40.60
2019-02-06T16:33:36.701Z,40.70
2019-02-06T16:36:02.933Z,40.70
2019-02-06T16:38:29.224Z,40.60
2019-02-06T16:40:55.392Z,40.70
2019-02-06T16:43:21.630Z,41.40
2019-02-06T16:45:47.846Z,40.80
2019-02-06T16:48:14.073Z,40.80
2019-02-06T16:50:40.308Z,40.80
2019-02-06T16:53:06.545Z,40.80
2019-02-06T16:55:33.985Z,40.70
2019-02-06T16:58:00.208Z,40.70
2019-02-06T17:00:26.446Z,40.80
2019-02-06T17:02:52.680Z,40.70
2019-02-06T17:05:18.893Z,40.70
2019-02-06T17:07:45.036Z,40.70
2019-02-06T17:10:11.384Z,40.80
2019-02-06T17:12:37.583Z,40.70
2019-02-06T17:15:03.794Z,40.70
2019-02-06T17:17:30.040Z,40.70
2019-02-06T17:19:56.744Z,40.70
2019-02-06T17:22:22.522Z,40.70
2019-02-06T17:24:48.709Z,40.70
2019-02-06T17:27:14.933Z,40.70
2019-02-06T17:29:41.276Z,40.80
2019-02-06T17:32:07.404Z,40.70
2019-02-06T17:34:33.615Z,40.80
2019-02-06T17:36:59.852Z,40.60
2019-02-06T17:39:26.085Z,40.70
2019-02-06T17:41:52.312Z,40.60
2019-02-06T17:44:18.529Z,40.70
2019-02-06T17:46:44.753Z,40.70
2019-02-06T17:49:10.987Z,40.60
2019-02-06T17:51:37.214Z,40.60
2019-02-06T17:54:03.459Z,40.60
2019-02-06T17:56:29.663Z,40.60
2019-02-06T17:58:55.905Z,40.60
2019-02-06T18:01:22.112Z,40.60
2019-02-06T18:03:48.344Z,40.60
2019-02-06T18:06:14.576Z,40.60
2019-02-06T18:08:40.796Z,40.60
2019-02-06T18:11:07.029Z,40.60
2019-02-06T18:13:33.254Z,40.60
2019-02-06T18:15:59.901Z,40.60
2019-02-06T18:18:26.138Z,40.60
2019-02-06T18:20:52.354Z,40.50
2019-02-06T18:23:18.573Z,40.60
2019-02-06T18:25:45.213Z,40.60
2019-02-06T18:28:12.316Z,40.70
2019-02-06T18:30:38.641Z,40.50
2019-02-06T18:33:05.946Z,40.60
2019-02-06T18:35:33.423Z,40.60
2019-02-06T18:37:59.631Z,40.60
2019-02-06T18:40:25.858Z,40.60
2019-02-06T18:42:52.084Z,40.40
2019-02-06T18:45:18.330Z,40.50
2019-02-06T18:47:44.533Z,40.50
2019-02-06T18:50:10.761Z,40.50
2019-02-06T18:52:36.988Z,40.60
2019-02-06T18:55:03.216Z,40.60
2019-02-06T18:57:29.460Z,40.50
2019-02-06T18:59:56.907Z,40.50
2019-02-06T19:02:23.167Z,40.50
2019-02-06T19:04:49.369Z,40.50
2019-02-06T19:07:15.617Z,40.50
2019-02-06T19:09:42.218Z,40.50
2019-02-06T19:12:08.431Z,40.50
2019-02-06T19:14:34.672Z,40.40
2019-02-06T19:17:00.888Z,40.40
2019-02-06T19:19:27.123Z,40.50
2019-02-06T19:21:53.756Z,40.50
2019-02-06T19:24:20.388Z,40.50
2019-02-06T19:26:46.569Z,40.50
2019-02-06T19:29:12.858Z,40.50
2019-02-06T19:31:39.088Z,40.60
2019-02-06T19:34:05.312Z,40.60
2019-02-06T19:36:31.682Z,40.50
2019-02-06T19:38:58.214Z,40.60
2019-02-06T19:41:24.810Z,40.60
2019-02-06T19:43:51.131Z,40.60
2019-02-06T19:46:17.268Z,40.60
2019-02-06T19:48:43.489Z,40.60
2019-02-06T19:51:09.725Z,40.60
2019-02-06T19:53:35.956Z,40.60
2019-02-06T19:56:02.167Z,40.60
2019-02-06T19:58:28.392Z,40.60
2019-02-06T20:00:54.627Z,40.60
2019-02-06T20:03:20.858Z,40.70
2019-02-06T20:05:48.332Z,40.70
2019-02-06T20:08:14.572Z,40.70
2019-02-06T20:10:40.770Z,40.70
2019-02-06T20:13:11.331Z,40.60
2019-02-06T20:15:33.229Z,40.80
2019-02-06T20:17:59.451Z,40.80
2019-02-06T20:20:25.965Z,40.70
2019-02-06T20:22:52.325Z,40.80
2019-02-06T20:25:18.532Z,40.80
2019-02-06T20:27:44.774Z,40.70
2019-02-06T20:30:10.983Z,40.80
2019-02-06T20:32:37.225Z,40.90
2019-02-06T20:35:03.452Z,41.00
2019-02-06T20:37:29.665Z,40.90
2019-02-06T20:39:56.297Z,40.90
2019-02-06T20:42:22.942Z,40.80
2019-02-06T20:44:49.179Z,40.80
2019-02-06T20:47:15.405Z,40.90
2019-02-06T20:49:41.629Z,40.90
2019-02-06T20:52:07.856Z,40.90
2019-02-06T20:54:34.069Z,40.90
2019-02-06T20:57:11.847Z,40.90
2019-02-06T20:59:26.936Z,41.00
2019-02-06T21:01:53.201Z,41.00
2019-02-06T21:04:19.393Z,41.00
2019-02-06T21:06:45.625Z,41.00
2019-02-06T21:09:11.848Z,41.00
2019-02-06T21:11:38.076Z,41.10
2019-02-06T21:14:04.325Z,41.20
2019-02-06T21:16:30.527Z,41.20
2019-02-06T21:18:56.761Z,41.20
2019-02-06T21:21:22.994Z,41.30
2019-02-06T21:23:49.184Z,41.30
2019-02-06T21:26:15.373Z,41.30
2019-02-06T21:28:41.674Z,41.20
2019-02-06T21:31:07.898Z,41.30
2019-02-06T21:33:34.531Z,41.30
2019-02-06T21:36:00.767Z,41.30
2019-02-06T21:38:27.021Z,41.30
2019-02-06T21:40:53.228Z,41.30
2019-02-06T21:43:20.688Z,41.30
2019-02-06T21:45:46.904Z,41.30
2019-02-06T21:48:13.540Z,41.40
2019-02-06T21:50:39.781Z,41.40
2019-02-06T21:53:06.860Z,41.50
2019-02-06T21:55:33.040Z,41.40
2019-02-06T21:57:59.687Z,41.50
2019-02-06T22:00:25.912Z,41.60
2019-02-06T22:02:52.149Z,41.60
2019-02-06T22:05:18.364Z,41.60
2019-02-06T22:07:44.592Z,41.60
2019-02-06T22:10:10.820Z,41.70
2019-02-06T22:12:37.073Z,41.60
2019-02-06T22:15:03.685Z,41.60
2019-02-06T22:17:29.919Z,41.70
2019-02-06T22:19:56.549Z,41.70
2019-02-06T22:22:22.789Z,41.70
2019-02-06T22:24:49.009Z,41.70
2019-02-06T22:27:15.224Z,41.70
2019-02-06T22:29:41.465Z,41.70
2019-02-06T22:32:07.697Z,41.80
2019-02-06T22:34:35.188Z,41.80
2019-02-06T22:37:01.382Z,41.80
2019-02-06T22:39:27.602Z,42.50
2019-02-06T22:41:53.832Z,41.80
2019-02-06T22:44:20.062Z,41.80
2019-02-06T22:46:47.526Z,41.80
2019-02-06T22:49:13.755Z,41.80
2019-02-06T22:51:39.977Z,41.90
2019-02-06T22:54:06.197Z,41.90
2019-02-06T22:56:32.425Z,42.00
2019-02-06T22:58:58.650Z,42.00
2019-02-06T23:01:24.885Z,42.00
2019-02-06T23:03:51.969Z,42.10
2019-02-06T23:06:18.164Z,42.00
2019-02-06T23:08:44.388Z,42.10
2019-02-06T23:11:11.878Z,42.10
2019-02-06T23:13:38.071Z,42.00
2019-02-06T23:16:04.293Z,42.10
2019-02-06T23:18:30.520Z,42.20
2019-02-06T23:20:57.162Z,42.10
2019-02-06T23:23:23.391Z,42.10
2019-02-06T23:25:49.625Z,42.10
2019-02-06T23:28:15.844Z,42.10
2019-02-06T23:30:42.081Z,42.10
2019-02-06T23:33:08.309Z,42.20
2019-02-06T23:35:34.518Z,42.20
2019-02-06T23:38:00.750Z,42.10
2019-02-06T23:40:26.976Z,42.10
2019-02-06T23:42:53.205Z,42.20
2019-02-06T23:45:19.452Z,42.20
2019-02-06T23:47:45.659Z,42.30
2019-02-06T23:50:11.884Z,42.30
2019-02-06T23:52:38.112Z,42.30
2019-02-06T23:55:04.339Z,42.40
2019-02-06T23:57:30.587Z,42.40
2019-02-06T23:59:56.797Z,42.50
